Time;durP1;ratioP1;P1;durP2;ratioP2;P2;SDS_P1;SDS_P2;PMS_P1;PMS_P2;Temp;Humidity;BMP_temperature;BMP_pressure;BME280_temperature;BME280_humidity;BME280_pressure;Samples;Min_cycle;Max_cycle;Signal;HPM_P1;HPM_P2
2023/10/23 00:01:38;;;;;;;5.75;5.00;;;8.80;99.90;;;;;;5050256;28;20060;-74
2023/10/23 00:04:05;;;;;;;6.13;4.40;;;8.80;99.90;;;;;;5068358;28;20491;-75
2023/10/23 00:06:31;;;;;;;6.15;4.88;;;8.70;99.90;;;;;;5068409;28;20055;-74
2023/10/23 00:08:56;;;;;;;5.20;4.63;;;8.70;99.90;;;;;;5068482;28;20049;-74
2023/10/23 00:11:25;;;;;;;5.80;4.45;;;8.70;99.90;;;;;;5070169;28;20048;-75
2023/10/23 00:13:51;;;;;;;8.35;4.80;;;8.70;99.90;;;;;;5072138;28;20075;-76
2023/10/23 00:16:18;;;;;;;4.88;4.43;;;8.60;99.90;;;;;;5072344;28;20044;-74
2023/10/23 00:18:43;;;;;;;9.88;5.43;;;8.70;99.90;;;;;;5072078;28;20041;-74
2023/10/23 00:21:09;;;;;;;7.30;5.15;;;8.60;99.90;;;;;;5071652;28;20401;-73
2023/10/23 00:23:35;;;;;;;5.88;4.50;;;8.60;99.90;;;;;;5071793;28;20256;-74
2023/10/23 00:26:01;;;;;;;6.10;4.93;;;8.60;99.90;;;;;;5071823;28;20056;-74
2023/10/23 00:28:26;;;;;;;8.13;5.30;;;8.60;99.90;;;;;;5071708;28;20080;-74
2023/10/23 00:30:52;;;;;;;7.13;5.35;;;8.60;99.90;;;;;;5071964;28;20109;-74
2023/10/23 00:33:17;;;;;;;6.93;5.13;;;8.60;99.90;;;;;;5071799;28;20279;-74
2023/10/23 00:35:43;;;;;;;5.13;4.63;;;8.60;99.90;;;;;;5071531;28;20123;-74
2023/10/23 00:38:09;;;;;;;6.35;4.85;;;8.60;99.90;;;;;;5053772;28;20047;-75
2023/10/23 00:40:35;;;;;;;7.75;5.93;;;8.70;99.90;;;;;;5071499;28;20572;-75
2023/10/23 00:43:17;;;;;;;7.95;5.15;;;8.60;99.90;;;;;;5071796;28;20056;-75
2023/10/23 00:45:48;;;;;;;7.55;5.32;;;8.60;99.90;;;;;;5071562;28;20044;-74
2023/10/23 00:48:14;;;;;;;9.43;5.90;;;8.60;99.90;;;;;;5071679;28;20465;-75
2023/10/23 00:50:40;;;;;;;9.65;5.82;;;8.70;99.90;;;;;;5037526;28;20049;-75
2023/10/23 00:53:06;;;;;;;12.50;5.82;;;8.60;99.90;;;;;;5071884;28;20098;-74
2023/10/23 00:55:32;;;;;;;10.60;5.80;;;8.70;99.90;;;;;;5071323;28;20068;-74
2023/10/23 00:57:58;;;;;;;8.50;6.00;;;8.70;99.90;;;;;;5071038;28;20060;-75
2023/10/23 01:00:24;;;;;;;6.65;5.70;;;8.70;99.90;;;;;;5053389;28;20056;-75
2023/10/23 01:02:50;;;;;;;6.03;5.00;;;8.60;99.90;;;;;;5071055;28;20068;-74
2023/10/23 01:05:16;;;;;;;6.82;5.72;;;8.60;99.90;;;;;;5053234;28;20574;-74
2023/10/23 01:07:42;;;;;;;6.22;5.03;;;8.60;99.90;;;;;;5071042;28;20140;-75
2023/10/23 01:10:08;;;;;;;7.75;5.75;;;8.60;99.90;;;;;;5070660;28;20444;-74
2023/10/23 01:12:33;;;;;;;5.65;5.05;;;8.50;99.90;;;;;;5070935;28;20060;-74
2023/10/23 01:14:59;;;;;;;7.25;5.25;;;8.50;99.90;;;;;;5052643;28;20053;-74
2023/10/23 01:17:25;;;;;;;5.43;4.88;;;8.40;99.90;;;;;;5070715;28;20036;-76
2023/10/23 01:19:50;;;;;;;5.70;4.63;;;8.40;99.90;;;;;;5070977;28;20114;-75
2023/10/23 01:22:16;;;;;;;6.07;5.00;;;8.30;99.90;;;;;;5069791;28;20515;-74
2023/10/23 01:24:44;;;;;;;5.32;4.85;;;8.30;99.90;;;;;;5070381;28;20057;-74
2023/10/23 01:27:10;;;;;;;5.78;4.57;;;8.30;99.90;;;;;;5052588;28;20059;-75
2023/10/23 01:29:36;;;;;;;8.05;5.32;;;8.30;99.90;;;;;;5070416;28;20036;-75
2023/10/23 01:32:03;;;;;;;5.38;4.88;;;8.20;99.90;;;;;;5070490;28;20060;-74
2023/10/23 01:34:28;;;;;;;5.28;4.78;;;8.20;99.90;;;;;;5052635;28;20060;-75
2023/10/23 01:36:54;;;;;;;5.30;4.80;;;8.10;99.90;;;;;;5070293;28;20045;-74
2023/10/23 01:39:20;;;;;;;8.07;4.93;;;8.10;99.90;;;;;;5070497;28;20044;-75
2023/10/23 01:41:45;;;;;;;4.90;4.45;;;8.10;99.90;;;;;;5070452;28;20048;-75
2023/10/23 01:44:11;;;;;;;5.15;4.65;;;8.10;99.90;;;;;;5070536;28;20059;-74
2023/10/23 01:46:37;;;;;;;6.85;4.55;;;8.10;99.90;;;;;;5070257;28;20095;-74
2023/10/23 01:49:03;;;;;;;6.07;4.57;;;8.00;99.90;;;;;;5070700;28;20080;-73
2023/10/23 01:51:28;;;;;;;4.93;4.40;;;8.00;99.90;;;;;;5070321;28;20106;-75
2023/10/23 01:53:54;;;;;;;6.93;4.30;;;7.90;99.90;;;;;;5070199;28;20045;-74
2023/10/23 01:56:20;;;;;;;5.72;4.68;;;7.90;99.90;;;;;;5070128;28;20098;-74
2023/10/23 01:58:46;;;;;;;5.35;4.70;;;7.90;99.90;;;;;;5069969;28;20044;-74
2023/10/23 02:01:22;;;;;;;4.63;3.72;;;7.90;99.90;;;;;;5052121;28;20052;-74
2023/10/23 02:03:49;;;;;;;4.07;3.67;;;7.80;99.90;;;;;;5048979;28;20136;-74
2023/10/23 02:06:15;;;;;;;3.65;3.35;;;7.90;99.90;;;;;;5049945;28;20124;-74
2023/10/23 02:08:41;;;;;;;3.45;3.15;;;7.90;99.90;;;;;;5032330;28;20052;-75
2023/10/23 02:11:10;;;;;;;3.42;3.13;;;7.80;99.90;;;;;;5032022;28;20118;-73
2023/10/23 02:13:36;;;;;;;3.55;3.20;;;7.80;99.90;;;;;;5049894;28;20415;-74
2023/10/23 02:16:02;;;;;;;4.53;3.05;;;7.80;99.90;;;;;;5049703;28;20096;-74
2023/10/23 02:18:28;;;;;;;4.53;3.50;;;7.80;99.90;;;;;;5049828;28;20089;-73
2023/10/23 02:20:53;;;;;;;3.47;3.17;;;7.70;99.90;;;;;;5049400;28;20144;-74
2023/10/23 02:23:19;;;;;;;3.13;2.83;;;7.70;99.90;;;;;;5049542;28;20049;-75
2023/10/23 02:25:46;;;;;;;3.70;3.40;;;7.70;99.90;;;;;;5049558;28;20124;-73
2023/10/23 02:28:11;;;;;;;3.00;2.80;;;7.60;99.90;;;;;;5049558;28;20412;-74
2023/10/23 02:30:37;;;;;;;2.63;2.42;;;7.50;99.90;;;;;;5049712;28;20053;-74
2023/10/23 02:33:03;;;;;;;3.90;3.03;;;7.60;99.90;;;;;;5031834;28;20049;-74
2023/10/23 02:35:29;;;;;;;4.47;2.90;;;7.50;99.90;;;;;;5049592;28;20559;-74
2023/10/23 02:37:55;;;;;;;3.28;2.50;;;7.50;99.90;;;;;;5049761;28;20570;-74
2023/10/23 02:40:21;;;;;;;3.65;2.72;;;7.50;99.90;;;;;;5031618;28;20124;-74
2023/10/23 02:42:47;;;;;;;5.10;3.10;;;7.40;99.90;;;;;;5049345;28;20103;-74
2023/10/23 02:45:13;;;;;;;3.03;2.60;;;7.40;99.90;;;;;;5049277;28;20048;-73
2023/10/23 02:47:39;;;;;;;3.15;2.38;;;7.40;99.90;;;;;;5027793;28;20089;-75
2023/10/23 02:50:06;;;;;;;3.67;2.53;;;7.40;99.90;;;;;;5044651;28;20131;-75
2023/10/23 02:52:31;;;;;;;2.78;2.58;;;7.40;99.90;;;;;;5049190;28;20393;-73
2023/10/23 02:54:57;;;;;;;3.08;2.88;;;7.40;99.90;;;;;;5049077;28;20049;-74
2023/10/23 02:57:23;;;;;;;2.42;2.22;;;7.40;99.90;;;;;;5049070;28;20417;-74
2023/10/23 02:59:48;;;;;;;2.80;2.33;;;7.40;99.90;;;;;;5049931;28;20572;-74
2023/10/23 03:02:15;;;;;;;4.45;2.50;;;7.40;99.90;;;;;;5031244;28;20049;-74
2023/10/23 03:04:41;;;;;;;4.45;2.80;;;7.50;99.90;;;;;;5030973;28;20056;-75
2023/10/23 03:07:07;;;;;;;3.53;2.90;;;7.40;99.90;;;;;;5048997;28;20049;-74
2023/10/23 03:09:33;;;;;;;2.70;2.50;;;7.40;99.90;;;;;;5049190;28;20041;-73
2023/10/23 03:11:58;;;;;;;2.83;2.63;;;7.30;99.90;;;;;;5048828;28;20578;-74
2023/10/23 03:14:24;;;;;;;3.15;2.88;;;7.30;99.90;;;;;;5048933;28;20136;-74
2023/10/23 03:16:50;;;;;;;3.15;2.85;;;7.30;99.90;;;;;;5049168;28;20049;-74
2023/10/23 03:19:16;;;;;;;3.28;2.97;;;7.40;99.90;;;;;;5048544;28;20107;-74
2023/10/23 03:21:41;;;;;;;2.80;2.60;;;7.30;99.90;;;;;;5048797;28;20059;-75
2023/10/23 03:24:07;;;;;;;3.10;2.80;;;7.40;99.90;;;;;;5030610;28;20474;-75
2023/10/23 03:26:33;;;;;;;4.10;2.40;;;7.20;99.90;;;;;;5048582;28;20041;-74
2023/10/23 03:28:59;;;;;;;2.60;2.40;;;7.20;99.90;;;;;;5048696;28;20045;-74
2023/10/23 03:31:24;;;;;;;2.42;2.30;;;7.10;99.90;;;;;;5048866;28;20045;-74
2023/10/23 03:33:51;;;;;;;2.90;2.70;;;7.10;99.90;;;;;;5048514;28;20053;-73
2023/10/23 03:36:17;;;;;;;3.65;3.15;;;7.10;99.90;;;;;;5030786;28;20540;-73
2023/10/23 03:38:43;;;;;;;3.28;2.97;;;7.20;99.90;;;;;;5030837;28;20124;-74
2023/10/23 03:41:09;;;;;;;3.00;2.80;;;7.20;99.90;;;;;;5048152;28;20057;-74
2023/10/23 03:43:34;;;;;;;2.95;2.65;;;7.20;99.90;;;;;;5048726;28;20041;-74
2023/10/23 03:46:03;;;;;;;3.33;3.03;;;7.10;99.90;;;;;;5050024;28;20056;-74
2023/10/23 03:48:29;;;;;;;3.00;2.70;;;7.10;99.90;;;;;;5017613;28;20065;-74
2023/10/23 03:50:59;;;;;;;4.22;2.90;;;7.10;99.90;;;;;;5052940;28;20053;-73
2023/10/23 03:53:25;;;;;;;3.75;2.85;;;7.10;99.90;;;;;;5052583;28;20044;-73
2023/10/23 03:55:51;;;;;;;4.03;3.13;;;7.10;99.90;;;;;;5052336;28;20144;-74
2023/10/23 03:58:16;;;;;;;5.57;3.38;;;7.10;99.90;;;;;;5052107;28;20052;-74
2023/10/23 04:00:42;;;;;;;5.30;3.85;;;7.10;99.90;;;;;;5052201;28;20142;-73
2023/10/23 04:03:10;;;;;;;4.85;3.67;;;7.10;99.90;;;;;;5051927;28;20047;-74
2023/10/23 04:05:43;;;;;;;4.05;3.45;;;7.10;99.90;;;;;;5052210;28;20405;-74
2023/10/23 04:08:08;;;;;;;5.20;3.00;;;7.10;99.90;;;;;;5052050;28;20072;-74
2023/10/23 04:10:34;;;;;;;4.75;3.85;;;7.10;99.90;;;;;;5052408;28;20424;-74
2023/10/23 04:13:00;;;;;;;5.60;3.67;;;7.10;99.90;;;;;;5052276;28;20053;-74
2023/10/23 04:15:26;;;;;;;4.10;3.30;;;7.10;99.90;;;;;;5051958;28;20114;-74
2023/10/23 04:17:52;;;;;;;4.55;3.65;;;7.10;99.90;;;;;;5051535;28;20111;-75
2023/10/23 04:20:17;;;;;;;3.60;3.15;;;7.20;99.90;;;;;;5051935;28;20044;-74
2023/10/23 04:22:43;;;;;;;3.97;3.38;;;7.10;99.90;;;;;;5051813;28;20118;-74
2023/10/23 04:25:09;;;;;;;4.05;3.65;;;7.00;99.90;;;;;;5052036;28;20489;-74
2023/10/23 04:27:35;;;;;;;3.55;3.25;;;7.00;99.90;;;;;;5051732;28;20566;-75
2023/10/23 04:30:01;;;;;;;3.45;2.92;;;7.10;99.90;;;;;;5052007;28;20057;-75
2023/10/23 04:32:27;;;;;;;4.03;3.63;;;7.10;99.90;;;;;;5051562;28;20417;-74
2023/10/23 04:34:53;;;;;;;4.45;3.42;;;7.10;99.90;;;;;;5051824;28;20053;-74
2023/10/23 04:37:19;;;;;;;3.58;3.28;;;7.10;99.90;;;;;;5052050;28;20049;-74
2023/10/23 04:39:45;;;;;;;6.78;3.65;;;7.10;99.90;;;;;;5052079;28;20515;-75
2023/10/23 04:42:10;;;;;;;5.10;3.67;;;7.10;99.90;;;;;;5033803;28;20421;-74
2023/10/23 04:44:36;;;;;;;6.07;3.83;;;7.10;99.90;;;;;;5051523;28;20060;-74
2023/10/23 04:47:02;;;;;;;5.38;3.80;;;7.10;99.90;;;;;;5051157;28;20052;-73
2023/10/23 04:49:28;;;;;;;4.85;4.30;;;7.00;99.90;;;;;;5051426;28;20417;-74
2023/10/23 04:51:54;;;;;;;5.15;3.83;;;7.00;99.90;;;;;;5051524;28;20071;-75
2023/10/23 04:54:20;;;;;;;4.32;3.92;;;7.00;99.90;;;;;;5033269;28;20048;-74
2023/10/23 04:56:46;;;;;;;5.00;4.03;;;7.00;99.90;;;;;;5050855;28;20280;-74
2023/10/23 04:59:12;;;;;;;5.10;3.85;;;7.00;99.90;;;;;;5032941;28;20045;-74
2023/10/23 05:01:38;;;;;;;5.30;4.28;;;7.00;99.90;;;;;;5050926;28;20053;-74
2023/10/23 05:04:04;;;;;;;4.60;4.20;;;7.00;99.90;;;;;;5051371;28;20076;-74
2023/10/23 05:06:29;;;;;;;9.52;4.45;;;7.00;99.90;;;;;;5050923;28;20374;-75
2023/10/23 05:08:55;;;;;;;7.70;5.00;;;6.90;99.90;;;;;;5051006;28;20052;-75
2023/10/23 05:11:21;;;;;;;4.82;3.92;;;6.90;99.90;;;;;;5051173;28;20057;-74
2023/10/23 05:13:47;;;;;;;6.35;3.88;;;6.80;99.90;;;;;;5050875;28;20463;-75
2023/10/23 05:16:13;;;;;;;4.72;3.60;;;6.80;99.90;;;;;;5032712;28;20139;-74
2023/10/23 05:18:39;;;;;;;4.13;3.72;;;6.90;99.90;;;;;;5051013;28;20076;-74
2023/10/23 05:21:10;;;;;;;4.45;3.45;;;6.80;99.90;;;;;;5032642;28;20057;-74
2023/10/23 05:23:36;;;;;;;4.43;3.50;;;6.80;99.90;;;;;;5050675;28;20079;-74
2023/10/23 05:26:02;;;;;;;5.05;3.60;;;6.90;99.90;;;;;;5050877;28;20428;-74
2023/10/23 05:28:28;;;;;;;4.13;3.45;;;6.80;99.90;;;;;;5050866;28;20072;-73
2023/10/23 05:30:54;;;;;;;4.53;3.78;;;6.80;99.90;;;;;;5032214;28;20075;-74
2023/10/23 05:33:20;;;;;;;4.88;3.67;;;6.80;99.90;;;;;;5050866;28;20055;-74
2023/10/23 05:35:46;;;;;;;4.35;3.90;;;6.70;99.90;;;;;;5032668;28;20587;-74
2023/10/23 05:38:12;;;;;;;4.82;4.10;;;6.80;99.90;;;;;;5050582;28;20123;-74
2023/10/23 05:40:37;;;;;;;5.57;4.18;;;6.80;99.90;;;;;;5050277;28;20523;-74
2023/10/23 05:43:03;;;;;;;4.85;3.80;;;6.80;99.90;;;;;;5032556;28;20048;-74
2023/10/23 05:45:29;;;;;;;5.07;3.35;;;6.70;99.90;;;;;;5050097;28;20417;-75
2023/10/23 05:47:55;;;;;;;6.82;3.65;;;6.70;99.90;;;;;;5032243;28;20061;-75
2023/10/23 05:50:20;;;;;;;7.18;3.90;;;6.70;99.90;;;;;;5050137;28;20053;-74
2023/10/23 05:52:46;;;;;;;4.78;4.07;;;6.70;99.90;;;;;;5050387;28;20461;-74
2023/10/23 05:55:12;;;;;;;5.70;4.18;;;6.70;99.90;;;;;;5050260;28;20055;-75
2023/10/23 05:57:37;;;;;;;5.68;3.90;;;6.80;99.90;;;;;;5049935;28;20053;-71
2023/10/23 06:00:03;;;;;;;5.82;4.00;;;6.80;99.90;;;;;;5050002;28;20045;-75
2023/10/23 06:02:30;;;;;;;5.97;4.07;;;6.80;99.90;;;;;;5049909;28;20073;-74
2023/10/23 06:04:56;;;;;;;8.40;3.83;;;6.90;99.90;;;;;;5046217;28;20361;-75
2023/10/23 06:07:22;;;;;;;7.05;4.53;;;6.90;99.90;;;;;;5018250;28;20491;-77
2023/10/23 06:09:47;;;;;;;5.38;4.05;;;6.90;99.90;;;;;;5038679;28;20049;-76
2023/10/23 06:12:14;;;;;;;4.55;4.07;;;6.80;99.90;;;;;;5035528;28;20049;-75
2023/10/23 06:14:41;;;;;;;6.53;5.10;;;6.80;99.90;;;;;;5023097;28;20065;-76
2023/10/23 06:17:07;;;;;;;4.93;4.25;;;6.80;99.90;;;;;;5024485;28;20053;-78
2023/10/23 06:19:33;;;;;;;5.80;4.38;;;6.80;99.90;;;;;;5053835;28;20084;-75
2023/10/23 06:21:59;;;;;;;8.05;4.55;;;6.80;99.90;;;;;;5036015;28;20045;-76
2023/10/23 06:24:27;;;;;;;6.55;4.95;;;6.80;99.90;;;;;;5035600;28;20057;-75
2023/10/23 06:26:52;;;;;;;8.38;5.75;;;6.80;99.90;;;;;;5017150;28;20056;-76
2023/10/23 06:29:18;;;;;;;11.32;6.88;;;6.80;99.90;;;;;;5035629;28;20042;-76
2023/10/23 06:31:43;;;;;;;8.57;6.18;;;6.80;99.90;;;;;;5030611;28;20077;-76
2023/10/23 06:34:09;;;;;;;9.40;6.68;;;6.80;99.90;;;;;;5029849;28;20048;-77
2023/10/23 06:36:40;;;;;;;7.90;5.80;;;6.80;99.90;;;;;;5012314;28;20064;-77
2023/10/23 06:39:06;;;;;;;16.27;11.07;;;6.80;99.90;;;;;;5029848;28;20438;-76
2023/10/23 06:41:32;;;;;;;18.67;11.43;;;6.80;99.90;;;;;;5029347;28;20056;-79
2023/10/23 06:43:57;;;;;;;25.23;10.48;;;6.80;99.90;;;;;;5029864;28;20506;-77
2023/10/23 06:46:23;;;;;;;27.23;5.78;;;6.70;99.90;;;;;;5035585;28;20144;-77
2023/10/23 06:48:49;;;;;;;5.72;4.30;;;6.70;99.90;;;;;;5052652;28;20479;-79
2023/10/23 06:51:15;;;;;;;10.43;5.85;;;6.70;99.90;;;;;;5031589;28;20447;-78
2023/10/23 06:53:40;;;;;;;10.43;6.15;;;6.80;99.90;;;;;;5031252;28;20136;-79
2023/10/23 06:56:08;;;;;;;7.38;5.63;;;6.90;99.90;;;;;;5030979;28;20053;-78
2023/10/23 06:58:34;;;;;;;7.18;5.75;;;7.00;99.90;;;;;;5049501;28;20052;-78
2023/10/23 07:01:09;;;;;;;7.13;5.22;;;7.00;99.90;;;;;;5049257;28;20057;-77
2023/10/23 07:03:36;;;;;;;8.27;6.07;;;7.00;99.90;;;;;;5049265;28;20060;-78
2023/10/23 07:06:08;;;;;;;11.50;4.85;;;7.00;99.90;;;;;;5014532;28;20052;-81
2023/10/23 07:08:34;;;;;;;5.65;4.70;;;7.00;99.90;;;;;;5031542;28;20057;-80
2023/10/23 07:11:00;;;;;;;6.28;5.18;;;7.00;99.90;;;;;;5049280;28;20061;-78
2023/10/23 07:13:27;;;;;;;5.55;4.53;;;7.10;99.90;;;;;;5032202;28;20111;-85
2023/10/23 07:15:52;;;;;;;8.38;6.15;;;7.00;99.90;;;;;;5047224;28;20049;-85
2023/10/23 07:18:18;;;;;;;7.05;5.47;;;7.10;99.90;;;;;;5015021;28;20040;-83
2023/10/23 07:20:59;;;;;;;8.90;5.72;;;7.10;99.90;;;;;;5048499;28;20049;-83
2023/10/23 07:23:25;;;;;;;7.15;5.88;;;7.20;99.90;;;;;;5047975;28;20045;-82
2023/10/23 07:26:10;;;;;;;6.47;5.15;;;7.20;99.90;;;;;;5045382;28;20045;-82
2023/10/23 07:28:39;;;;;;;5.85;5.25;;;7.20;99.90;;;;;;5046111;28;20045;-85
2023/10/23 07:31:05;;;;;;;13.93;5.07;;;7.30;99.90;;;;;;5048173;28;20491;-81
2023/10/23 07:33:31;;;;;;;8.50;4.50;;;7.10;99.90;;;;;;5047851;28;20092;-81
2023/10/23 07:36:15;;;;;;;18.15;4.72;;;7.10;99.90;;;;;;5030190;28;20500;-81
2023/10/23 07:38:43;;;;;;;17.85;4.32;;;7.20;99.90;;;;;;5028179;28;20048;-82
2023/10/23 07:41:10;;;;;;;13.90;5.88;;;7.10;99.90;;;;;;5048595;28;20092;-80
2023/10/23 07:43:36;;;;;;;19.90;5.88;;;7.10;99.90;;;;;;5048638;28;20045;-80
2023/10/23 07:46:07;;;;;;;26.35;5.97;;;7.10;99.90;;;;;;5048523;28;20052;-78
2023/10/23 07:48:32;;;;;;;17.60;5.60;;;7.10;99.90;;;;;;5030884;28;20573;-81
2023/10/23 07:50:59;;;;;;;10.75;5.85;;;7.20;99.90;;;;;;5048886;28;20144;-81
2023/10/23 07:53:26;;;;;;;8.43;5.35;;;7.20;99.90;;;;;;5014329;28;20060;-77
2023/10/23 07:55:51;;;;;;;35.83;6.18;;;7.30;99.90;;;;;;5048460;28;20053;-77
2023/10/23 07:58:17;;;;;;;9.45;6.28;;;7.20;99.90;;;;;;5048415;28;20063;-73
2023/10/23 08:00:43;;;;;;;22.95;6.38;;;7.40;99.90;;;;;;5048421;28;20092;-72
2023/10/23 08:03:09;;;;;;;40.30;8.43;;;7.50;99.90;;;;;;5034052;28;20084;-73
2023/10/23 08:05:35;;;;;;;68.88;11.05;;;7.50;99.90;;;;;;5036548;28;20061;-73
2023/10/23 08:08:01;;;;;;;45.47;10.30;;;7.70;99.90;;;;;;5033304;28;20080;-73
2023/10/23 08:10:27;;;;;;;54.88;9.88;;;7.70;99.90;;;;;;5028947;28;20088;-73
2023/10/23 08:12:53;;;;;;;26.90;9.77;;;7.80;99.90;;;;;;5027007;28;20750;-72
2023/10/23 08:15:19;;;;;;;76.20;22.00;;;7.80;99.90;;;;;;5028242;28;20156;-72
2023/10/23 08:17:44;;;;;;;54.25;13.85;;;7.90;99.90;;;;;;5010354;28;20512;-73
2023/10/23 08:20:10;;;;;;;26.02;11.82;;;8.00;99.90;;;;;;5028039;28;20061;-73
2023/10/23 08:22:36;;;;;;;38.85;9.90;;;8.10;99.90;;;;;;5028094;28;20053;-73
2023/10/23 08:25:02;;;;;;;15.10;9.75;;;8.20;99.90;;;;;;5027850;28;20049;-74
2023/10/23 08:27:28;;;;;;;23.70;10.35;;;8.20;99.90;;;;;;5028189;28;20217;-74
2023/10/23 08:29:54;;;;;;;18.98;10.25;;;8.30;99.90;;;;;;5026552;28;20177;-74
2023/10/23 08:32:19;;;;;;;63.72;10.65;;;8.40;99.90;;;;;;5024765;28;20049;-73
2023/10/23 08:34:45;;;;;;;32.65;11.80;;;8.50;99.90;;;;;;5031418;28;20041;-73
2023/10/23 08:37:11;;;;;;;27.95;10.50;;;8.60;99.90;;;;;;5031726;28;20501;-74
2023/10/23 08:39:37;;;;;;;33.88;10.77;;;8.50;99.90;;;;;;5031527;28;20057;-75
2023/10/23 08:42:03;;;;;;;22.27;10.25;;;8.60;99.90;;;;;;5031664;28;20064;-74
2023/10/23 08:44:29;;;;;;;37.03;11.23;;;8.60;99.90;;;;;;5031572;28;20046;-73
2023/10/23 08:46:55;;;;;;;22.20;10.82;;;8.60;99.90;;;;;;5031040;28;20080;-73
2023/10/23 08:49:21;;;;;;;23.55;10.88;;;8.70;99.90;;;;;;5031241;28;20162;-74
2023/10/23 08:51:50;;;;;;;22.65;11.43;;;8.70;99.90;;;;;;5031244;28;20140;-74
2023/10/23 08:54:20;;;;;;;19.00;11.93;;;8.80;99.90;;;;;;5031021;28;20049;-74
2023/10/23 08:56:58;;;;;;;21.33;12.13;;;8.80;99.90;;;;;;5012962;28;20061;-75
2023/10/23 08:59:24;;;;;;;24.67;13.85;;;8.90;99.90;;;;;;5031213;28;20081;-74
2023/10/23 09:01:50;;;;;;;24.13;14.60;;;8.90;99.90;;;;;;5031298;28;20141;-74
2023/10/23 09:04:16;;;;;;;27.45;15.55;;;9.00;99.90;;;;;;5031135;28;20055;-73
2023/10/23 09:06:45;;;;;;;28.38;16.02;;;9.10;99.90;;;;;;5030866;28;20045;-73
2023/10/23 09:09:11;;;;;;;26.55;16.45;;;9.00;99.90;;;;;;5030767;28;20136;-72
2023/10/23 09:11:45;;;;;;;32.15;16.17;;;9.10;99.90;;;;;;5029712;28;20053;-72
2023/10/23 09:14:24;;;;;;;48.78;15.73;;;9.10;99.90;;;;;;5029925;28;20449;-71
2023/10/23 09:16:52;;;;;;;42.95;15.90;;;9.10;99.90;;;;;;5025131;28;20049;-72
2023/10/23 09:19:32;;;;;;;52.65;16.20;;;9.10;99.90;;;;;;5023730;28;20046;-72
2023/10/23 09:21:58;;;;;;;49.80;14.73;;;9.20;99.90;;;;;;4995947;28;20409;-72
2023/10/23 09:24:24;;;;;;;29.25;13.02;;;9.20;99.90;;;;;;5026310;28;20069;-72
2023/10/23 09:26:51;;;;;;;44.40;14.10;;;9.20;99.90;;;;;;5026304;28;20120;-72
2023/10/23 09:29:27;;;;;;;41.08;13.05;;;9.30;99.90;;;;;;5028188;28;20045;-72
2023/10/23 09:31:57;;;;;;;66.25;13.98;;;9.40;99.90;;;;;;5024219;28;20076;-72
2023/10/23 09:34:23;;;;;;;38.28;13.77;;;9.40;99.90;;;;;;5030061;28;20074;-72
2023/10/23 09:36:50;;;;;;;51.47;17.58;;;9.40;99.90;;;;;;5029990;28;20049;-72
2023/10/23 09:39:21;;;;;;;49.13;17.52;;;9.50;99.90;;;;;;5030466;28;20137;-73
2023/10/23 09:41:47;;;;;;;41.05;17.88;;;9.60;99.90;;;;;;5030539;28;20142;-73
2023/10/23 09:44:13;;;;;;;35.20;18.95;;;9.60;99.90;;;;;;5030032;28;20051;-72
2023/10/23 09:46:42;;;;;;;42.42;19.90;;;9.70;99.90;;;;;;5033770;28;20485;-73
2023/10/23 09:49:09;;;;;;;36.70;19.42;;;9.70;99.90;;;;;;5050297;28;20045;-72
2023/10/23 09:51:39;;;;;;;35.80;17.42;;;9.80;99.90;;;;;;5049813;28;20129;-72
2023/10/23 09:54:22;;;;;;;32.50;16.25;;;9.80;99.90;;;;;;5050569;28;20071;-73
2023/10/23 09:56:52;;;;;;;30.60;16.20;;;9.90;99.90;;;;;;5050225;28;20089;-72
2023/10/23 09:59:24;;;;;;;30.58;16.27;;;9.90;99.90;;;;;;5050006;28;20064;-72
2023/10/23 10:01:50;;;;;;;30.52;16.90;;;10.10;99.90;;;;;;5049814;28;20060;-72
2023/10/23 10:04:34;;;;;;;30.10;17.35;;;10.10;99.90;;;;;;5048310;28;20040;-72
2023/10/23 10:07:08;;;;;;;34.10;15.98;;;10.10;99.90;;;;;;5049830;28;20107;-71
2023/10/23 10:09:34;;;;;;;31.38;15.93;;;10.10;99.90;;;;;;5048769;28;20132;-72
2023/10/23 10:12:03;;;;;;;36.20;17.58;;;10.20;99.90;;;;;;5029690;28;20129;-73
2023/10/23 10:14:30;;;;;;;37.97;18.05;;;10.20;99.90;;;;;;5029536;28;20049;-72
2023/10/23 10:16:57;;;;;;;40.55;20.67;;;10.20;99.90;;;;;;5029719;28;20072;-73
2023/10/23 10:19:26;;;;;;;43.17;19.52;;;10.20;99.90;;;;;;5029685;28;20128;-72
2023/10/23 10:22:00;;;;;;;39.97;19.85;;;10.20;99.90;;;;;;5029515;28;20065;-72
2023/10/23 10:24:27;;;;;;;40.50;20.83;;;10.30;99.90;;;;;;5029763;28;20046;-72
2023/10/23 10:26:53;;;;;;;43.03;20.20;;;10.30;99.90;;;;;;5029933;28;20059;-73
2023/10/23 10:29:19;;;;;;;46.58;22.48;;;10.40;99.90;;;;;;5029598;28;20050;-75
2023/10/23 10:32:09;;;;;;;45.95;23.40;;;10.40;99.90;;;;;;5029609;28;20058;-74
2023/10/23 10:34:47;;;;;;;42.33;20.10;;;10.40;99.90;;;;;;5029252;28;20128;-73
2023/10/23 10:37:14;;;;;;;37.83;19.70;;;10.40;99.90;;;;;;5011626;28;20049;-73
2023/10/23 10:39:52;;;;;;;40.47;20.27;;;10.40;99.90;;;;;;5029434;28;20398;-74
2023/10/23 10:42:28;;;;;;;40.20;20.60;;;10.40;99.90;;;;;;5029116;28;20132;-73
2023/10/23 10:44:59;;;;;;;42.67;21.50;;;10.40;99.90;;;;;;5027835;28;20054;-73
2023/10/23 10:47:40;;;;;;;49.63;23.55;;;10.50;99.90;;;;;;5028844;28;20053;-74
2023/10/23 10:50:07;;;;;;;50.95;24.50;;;10.50;99.90;;;;;;5028961;28;20045;-73
2023/10/23 10:52:34;;;;;;;51.08;25.88;;;10.50;99.90;;;;;;5029289;28;20049;-73
2023/10/23 10:55:00;;;;;;;56.45;26.65;;;10.50;99.90;;;;;;5027053;28;20061;-74
2023/10/23 10:57:26;;;;;;;57.47;27.90;;;10.50;99.90;;;;;;5029186;28;20046;-74
2023/10/23 10:59:57;;;;;;;48.40;26.17;;;10.60;99.90;;;;;;5044611;28;20092;-73
2023/10/23 11:02:23;;;;;;;58.28;27.77;;;10.60;99.90;;;;;;5029214;28;20942;-74
2023/10/23 11:04:49;;;;;;;48.30;25.17;;;10.70;99.90;;;;;;5039186;28;20045;-73
2023/10/23 11:07:19;;;;;;;53.50;24.83;;;10.70;99.90;;;;;;5049301;28;20045;-74
2023/10/23 11:09:45;;;;;;;52.22;27.02;;;10.70;99.90;;;;;;5049138;28;20515;-74
2023/10/23 11:12:10;;;;;;;52.53;28.33;;;10.80;99.90;;;;;;5049105;28;20053;-74
2023/10/23 11:14:38;;;;;;;48.47;26.10;;;10.80;99.90;;;;;;5049211;28;20123;-74
2023/10/23 11:17:05;;;;;;;48.13;25.73;;;10.90;99.90;;;;;;5064427;28;20096;-74
2023/10/23 11:19:31;;;;;;;47.83;24.20;;;10.90;99.90;;;;;;5047712;28;20468;-74
2023/10/23 11:22:10;;;;;;;47.08;24.00;;;10.90;99.90;;;;;;5049103;28;20053;-74
2023/10/23 11:24:36;;;;;;;44.67;24.77;;;11.00;99.90;;;;;;5047578;28;20103;-77
2023/10/23 11:27:04;;;;;;;43.53;21.83;;;11.00;99.90;;;;;;5049185;28;20048;-75
2023/10/23 11:29:41;;;;;;;39.92;20.42;;;11.10;99.90;;;;;;5048621;28;20460;-78
2023/10/23 11:32:07;;;;;;;40.03;21.88;;;11.10;99.90;;;;;;5048317;28;20524;-75
2023/10/23 11:34:36;;;;;;;42.97;24.30;;;11.10;99.90;;;;;;5047101;28;20053;-76
2023/10/23 11:37:04;;;;;;;39.38;21.38;;;11.20;99.90;;;;;;5048593;28;20059;-77
2023/10/23 11:39:30;;;;;;;40.80;22.02;;;11.20;99.90;;;;;;5047120;28;20520;-77
2023/10/23 11:41:57;;;;;;;35.50;19.38;;;11.30;99.90;;;;;;5048909;28;20037;-77
2023/10/23 11:44:27;;;;;;;32.55;19.13;;;11.30;99.90;;;;;;5048515;28;20084;-77
2023/10/23 11:46:54;;;;;;;30.15;18.05;;;11.30;99.90;;;;;;5046928;28;20053;-76
2023/10/23 11:49:22;;;;;;;30.20;18.02;;;11.40;99.90;;;;;;5030633;28;20049;-75
2023/10/23 11:51:49;;;;;;;30.55;18.63;;;11.40;99.90;;;;;;5048522;28;20667;-76
2023/10/23 11:54:16;;;;;;;34.28;18.92;;;11.40;99.90;;;;;;5048763;28;20332;-75
2023/10/23 11:56:43;;;;;;;31.67;19.33;;;11.50;99.90;;;;;;5048569;28;20053;-76
2023/10/23 11:59:13;;;;;;;31.75;17.08;;;11.50;99.90;;;;;;5048493;28;20115;-76
2023/10/23 12:01:39;;;;;;;31.52;18.90;;;11.50;99.90;;;;;;5046477;28;20060;-75
2023/10/23 12:04:06;;;;;;;28.45;16.88;;;11.50;99.90;;;;;;5048446;28;20060;-75
2023/10/23 12:06:32;;;;;;;28.65;16.90;;;11.50;99.90;;;;;;5047723;28;20084;-75
2023/10/23 12:08:57;;;;;;;25.98;15.75;;;11.50;99.90;;;;;;5052516;28;20084;-75
2023/10/23 12:11:25;;;;;;;28.77;16.45;;;11.50;99.90;;;;;;5049106;28;20561;-76
2023/10/23 12:13:50;;;;;;;26.00;14.60;;;11.50;99.90;;;;;;5052067;28;20041;-75
2023/10/23 12:16:16;;;;;;;25.40;13.82;;;11.50;99.90;;;;;;5050112;28;20509;-75
2023/10/23 12:18:43;;;;;;;26.65;15.88;;;11.50;99.90;;;;;;5051839;28;20049;-76
2023/10/23 12:21:09;;;;;;;27.30;15.95;;;11.50;99.90;;;;;;5051794;28;20049;-75
2023/10/23 12:23:34;;;;;;;24.13;14.88;;;11.50;99.90;;;;;;5050637;28;20091;-76
2023/10/23 12:26:00;;;;;;;27.55;15.45;;;11.50;99.90;;;;;;5051938;28;20103;-74
2023/10/23 12:28:26;;;;;;;26.20;14.65;;;11.60;99.90;;;;;;5052108;28;20044;-77
2023/10/23 12:30:51;;;;;;;29.33;17.75;;;11.60;99.90;;;;;;5051725;28;20052;-75
2023/10/23 12:33:17;;;;;;;23.25;14.90;;;11.60;99.90;;;;;;5051875;28;20057;-76
2023/10/23 12:35:43;;;;;;;25.17;15.63;;;11.60;99.90;;;;;;5050922;28;20060;-75
2023/10/23 12:38:11;;;;;;;22.85;14.63;;;11.60;99.90;;;;;;5051396;28;20057;-76
2023/10/23 12:40:39;;;;;;;23.05;14.82;;;11.70;99.90;;;;;;5055872;28;20056;-75
2023/10/23 12:43:04;;;;;;;23.63;14.48;;;11.70;99.90;;;;;;5051277;28;20503;-75
2023/10/23 12:45:30;;;;;;;25.13;15.20;;;11.70;99.90;;;;;;5051601;28;20057;-75